createdAt,value
2018-05-23T00:00:32.966Z,20.74
2018-05-23T00:01:13.505Z,20.72
2018-05-23T00:01:54.020Z,20.73
2018-05-23T00:02:34.545Z,20.73
2018-05-23T00:03:15.068Z,20.69
2018-05-23T00:03:55.591Z,20.82
2018-05-23T00:04:36.128Z,20.8
2018-05-23T00:05:16.643Z,20.88
2018-05-23T00:05:57.165Z,20.79
2018-05-23T00:06:37.680Z,20.87
2018-05-23T00:07:18.196Z,20.73
2018-05-23T00:07:58.718Z,20.84
2018-05-23T00:08:39.243Z,20.77
2018-05-23T00:09:19.782Z,20.72
2018-05-23T00:10:00.313Z,20.82
2018-05-23T00:10:40.829Z,20.79
2018-05-23T00:11:21.352Z,20.85
2018-05-23T00:12:01.864Z,20.84
2018-05-23T00:12:42.395Z,20.69
2018-05-23T00:13:22.918Z,20.73
2018-05-23T00:14:03.434Z,20.74
2018-05-23T00:14:43.961Z,20.73
2018-05-23T00:15:24.485Z,20.72
2018-05-23T00:16:05.008Z,20.76
2018-05-23T00:16:45.525Z,20.72
2018-05-23T00:17:26.050Z,20.82
2018-05-23T00:18:06.585Z,20.74
2018-05-23T00:18:47.108Z,20.66
2018-05-23T00:19:27.630Z,20.74
2018-05-23T00:20:08.151Z,20.76
2018-05-23T00:20:48.687Z,20.73
2018-05-23T00:21:29.208Z,20.66
2018-05-23T00:22:09.716Z,20.73
2018-05-23T00:22:50.240Z,20.57
2018-05-23T00:23:31.742Z,20.62
2018-05-23T00:24:11.341Z,20.62
2018-05-23T00:24:51.884Z,20.64
2018-05-23T00:25:32.419Z,20.7
2018-05-23T00:26:12.928Z,20.58
2018-05-23T00:26:53.462Z,20.59
2018-05-23T00:27:33.992Z,20.7
2018-05-23T00:28:14.503Z,20.57
2018-05-23T00:28:55.024Z,20.61
2018-05-23T00:29:35.552Z,20.61
2018-05-23T00:30:16.069Z,20.59
2018-05-23T00:30:56.594Z,20.54
2018-05-23T00:31:37.114Z,20.57
2018-05-23T00:32:17.647Z,20.59
2018-05-23T00:32:58.167Z,20.61
2018-05-23T00:33:38.701Z,20.59
2018-05-23T00:34:19.224Z,20.59
2018-05-23T00:34:59.749Z,20.61
2018-05-23T00:35:40.330Z,20.5
2018-05-23T00:36:20.860Z,20.54
2018-05-23T00:37:01.401Z,20.59
2018-05-23T00:37:41.928Z,20.59
2018-05-23T00:38:22.459Z,20.54
2018-05-23T00:39:02.983Z,20.59
2018-05-23T00:39:43.504Z,20.64
2018-05-23T00:40:24.032Z,20.59
2018-05-23T00:41:04.562Z,20.5
2018-05-23T00:41:45.077Z,20.5
2018-05-23T00:42:25.598Z,20.64
2018-05-23T00:43:06.116Z,20.64
2018-05-23T00:43:46.623Z,20.66
2018-05-23T00:44:27.142Z,20.61
2018-05-23T00:45:07.654Z,20.55
2018-05-23T00:45:48.185Z,20.61
2018-05-23T00:46:28.712Z,20.41
2018-05-23T00:47:09.240Z,20.47
2018-05-23T00:47:49.763Z,20.32
2018-05-23T00:48:30.276Z,20.47
2018-05-23T00:49:10.789Z,20.41
2018-05-23T00:49:51.344Z,20.38
2018-05-23T00:50:31.858Z,20.35
2018-05-23T00:51:12.411Z,20.5
2018-05-23T00:51:52.951Z,20.48
2018-05-23T00:52:33.468Z,20.5
2018-05-23T00:53:13.991Z,20.43
2018-05-23T00:53:54.534Z,20.42
2018-05-23T00:54:35.061Z,20.5
2018-05-23T00:55:15.582Z,20.33
2018-05-23T00:55:56.108Z,20.35
2018-05-23T00:56:36.626Z,20.23
2018-05-23T00:57:17.151Z,20.28
2018-05-23T00:57:57.681Z,20.31
2018-05-23T00:58:38.210Z,20.32
2018-05-23T00:59:18.744Z,20.29
2018-05-23T00:59:59.276Z,20.28
2018-05-23T01:00:39.787Z,20.42
2018-05-23T01:01:20.316Z,20.47
2018-05-23T01:02:00.838Z,20.48
2018-05-23T01:02:41.360Z,20.33
2018-05-23T01:03:21.882Z,20.39
2018-05-23T01:04:02.403Z,20.38
2018-05-23T01:04:42.936Z,20.39
2018-05-23T01:05:23.468Z,20.33
2018-05-23T01:06:03.989Z,20.35
2018-05-23T01:06:44.516Z,20.38
2018-05-23T01:07:25.043Z,20.36
2018-05-23T01:08:05.556Z,20.36
2018-05-23T01:08:46.097Z,20.28
2018-05-23T01:09:26.625Z,20.31
2018-05-23T01:10:07.161Z,20.29
2018-05-23T01:10:47.691Z,20.39
2018-05-23T01:11:28.229Z,20.48
2018-05-23T01:12:08.753Z,20.36
2018-05-23T01:12:49.272Z,20.35
2018-05-23T01:13:29.790Z,20.38
2018-05-23T01:14:10.328Z,20.38
2018-05-23T01:14:50.885Z,20.38
2018-05-23T01:15:31.418Z,20.39
2018-05-23T01:16:11.937Z,20.39
2018-05-23T01:16:52.455Z,20.33
2018-05-23T01:17:32.986Z,20.32
2018-05-23T01:18:13.479Z,20.33
2018-05-23T01:18:54.032Z,20.39
2018-05-23T01:19:34.672Z,20.38
2018-05-23T01:20:15.161Z,20.39
2018-05-23T01:20:55.686Z,20.48
2018-05-23T01:21:36.209Z,20.39
2018-05-23T01:22:16.741Z,20.51
2018-05-23T01:22:57.273Z,20.41
2018-05-23T01:23:37.794Z,20.41
2018-05-23T01:24:18.315Z,20.42
2018-05-23T01:24:58.831Z,20.31
2018-05-23T01:25:39.354Z,20.43
2018-05-23T01:26:19.871Z,20.47
2018-05-23T01:27:00.409Z,20.41
2018-05-23T01:27:40.926Z,20.41
2018-05-23T01:28:21.447Z,20.43
2018-05-23T01:29:01.958Z,20.41
2018-05-23T01:29:42.480Z,20.42
2018-05-23T01:30:23.025Z,20.42
2018-05-23T01:31:03.548Z,20.21
2018-05-23T01:31:44.108Z,20.24
2018-05-23T01:32:24.628Z,20.26
2018-05-23T01:33:05.153Z,20.28
2018-05-23T01:33:45.681Z,20.32
2018-05-23T01:34:26.202Z,20.38
2018-05-23T01:35:06.711Z,20.31
2018-05-23T01:35:47.237Z,20.35
2018-05-23T01:36:27.759Z,20.32
2018-05-23T01:37:08.272Z,20.32
2018-05-23T01:37:48.791Z,20.38
2018-05-23T01:38:29.301Z,20.42
2018-05-23T01:39:09.821Z,20.5
2018-05-23T01:39:50.345Z,20.52
2018-05-23T01:40:30.873Z,20.42
2018-05-23T01:41:11.383Z,20.42
2018-05-23T01:41:51.903Z,20.39
2018-05-23T01:42:32.425Z,20.38
2018-05-23T01:43:12.957Z,20.41
2018-05-23T01:43:53.489Z,20.47
2018-05-23T01:44:34.000Z,20.33
2018-05-23T01:45:14.533Z,20.39
2018-05-23T01:45:55.058Z,20.5
2018-05-23T01:46:35.574Z,20.42
2018-05-23T01:47:16.090Z,20.42
2018-05-23T01:47:56.606Z,20.43
2018-05-23T01:48:37.154Z,20.43
2018-05-23T01:49:17.671Z,20.33
2018-05-23T01:49:58.192Z,20.41
2018-05-23T01:50:38.716Z,20.36
2018-05-23T01:51:19.234Z,20.43
2018-05-23T01:51:59.752Z,20.41
2018-05-23T01:52:40.275Z,20.32
2018-05-23T01:53:20.796Z,20.35
2018-05-23T01:54:01.332Z,20.41
2018-05-23T01:54:41.850Z,20.39
2018-05-23T01:55:22.372Z,20.48
2018-05-23T01:56:02.903Z,20.43
2018-05-23T01:56:43.425Z,20.32
2018-05-23T01:57:23.959Z,20.35
2018-05-23T01:58:04.483Z,20.33
2018-05-23T01:58:45.004Z,20.29
2018-05-23T01:59:25.519Z,20.21
2018-05-23T02:00:06.039Z,20.33
2018-05-23T02:00:46.562Z,20.26
2018-05-23T02:01:27.109Z,20.31
2018-05-23T02:02:07.628Z,20.36
2018-05-23T02:02:48.159Z,20.36
2018-05-23T02:03:28.673Z,20.39
2018-05-23T02:04:09.197Z,20.36
2018-05-23T02:04:49.726Z,20.43
2018-05-23T02:05:30.257Z,20.39
2018-05-23T02:06:10.764Z,20.38
2018-05-23T02:06:51.296Z,20.36
2018-05-23T02:07:31.804Z,20.26
2018-05-23T02:08:12.329Z,20.32
2018-05-23T02:08:52.857Z,20.31
2018-05-23T02:09:33.371Z,20.21
2018-05-23T02:10:13.906Z,20.26
2018-05-23T02:10:54.452Z,20.21
2018-05-23T02:11:35.072Z,20.28
2018-05-23T02:12:15.547Z,20.38
2018-05-23T02:12:56.076Z,20.31
2018-05-23T02:13:36.603Z,20.36
2018-05-23T02:14:17.121Z,20.36
2018-05-23T02:14:57.641Z,20.39
2018-05-23T02:15:38.158Z,20.39
2018-05-23T02:16:18.672Z,20.26
2018-05-23T02:16:59.193Z,20.31
2018-05-23T02:17:39.713Z,20.26
2018-05-23T02:18:20.230Z,20.21
2018-05-23T02:19:00.775Z,20.28
2018-05-23T02:19:41.277Z,20.39
2018-05-23T02:20:21.813Z,20.33
2018-05-23T02:21:02.366Z,20.38
2018-05-23T02:21:42.883Z,20.32
2018-05-23T02:22:23.408Z,20.39
2018-05-23T02:23:03.948Z,20.28
2018-05-23T02:23:44.470Z,20.38
2018-05-23T02:24:25.005Z,20.41
2018-05-23T02:25:05.515Z,20.38
2018-05-23T02:25:46.038Z,20.47
2018-05-23T02:26:26.568Z,20.47
2018-05-23T02:27:07.080Z,20.43
2018-05-23T02:27:47.613Z,20.41
2018-05-23T02:28:28.140Z,20.41
2018-05-23T02:29:08.663Z,20.5
2018-05-23T02:29:49.187Z,20.47
2018-05-23T02:30:29.705Z,20.48
2018-05-23T02:31:10.236Z,20.39
2018-05-23T02:31:50.757Z,20.42
2018-05-23T02:32:31.262Z,20.35
2018-05-23T02:33:11.783Z,20.51
2018-05-23T02:33:52.301Z,20.42
2018-05-23T02:34:32.821Z,20.42
2018-05-23T02:35:13.341Z,20.28
2018-05-23T02:35:53.863Z,20.36
2018-05-23T02:36:34.394Z,20.42
2018-05-23T02:37:14.985Z,20.32
2018-05-23T02:37:55.422Z,20.35
2018-05-23T02:38:35.942Z,20.38
2018-05-23T02:39:16.460Z,20.32
2018-05-23T02:39:56.987Z,20.33
2018-05-23T02:40:37.507Z,20.32
2018-05-23T02:41:18.027Z,20.47
2018-05-23T02:41:58.553Z,20.33
2018-05-23T02:42:39.060Z,20.38
2018-05-23T02:43:19.589Z,20.39
2018-05-23T02:44:00.105Z,20.31
2018-05-23T02:44:40.628Z,20.36
2018-05-23T02:45:21.150Z,20.33
2018-05-23T02:46:01.679Z,20.35
2018-05-23T02:46:42.210Z,20.38
2018-05-23T02:47:22.742Z,20.31
2018-05-23T02:48:03.261Z,20.26
2018-05-23T02:48:43.783Z,20.32
2018-05-23T02:49:24.313Z,20.31
2018-05-23T02:50:05.566Z,20.33
2018-05-23T02:50:46.111Z,20.33
2018-05-23T02:51:26.646Z,20.35
2018-05-23T02:52:07.164Z,20.39
2018-05-23T02:52:47.679Z,20.41
2018-05-23T02:53:28.199Z,20.42
2018-05-23T02:54:08.738Z,20.47
2018-05-23T02:54:49.271Z,20.55
2018-05-23T02:55:29.789Z,20.54
2018-05-23T02:56:10.318Z,20.52
2018-05-23T02:56:50.844Z,20.42
2018-05-23T02:57:31.373Z,20.41
2018-05-23T02:58:11.893Z,20.35
2018-05-23T02:58:52.421Z,20.39
2018-05-23T02:59:32.945Z,20.35
2018-05-23T03:00:13.473Z,20.35
2018-05-23T03:00:54.001Z,20.39
2018-05-23T03:01:34.511Z,20.39
2018-05-23T03:02:15.036Z,20.36
2018-05-23T03:02:55.559Z,20.41
2018-05-23T03:03:36.083Z,20.48
2018-05-23T03:04:16.620Z,20.47
2018-05-23T03:04:57.139Z,20.48
2018-05-23T03:05:37.671Z,20.47
2018-05-23T03:06:18.189Z,20.39
2018-05-23T03:06:58.711Z,20.35
2018-05-23T03:07:39.232Z,20.23
2018-05-23T03:08:19.755Z,20.28
2018-05-23T03:09:00.265Z,20.33
2018-05-23T03:09:40.792Z,20.31
2018-05-23T03:10:21.324Z,20.29
2018-05-23T03:11:01.843Z,20.29
2018-05-23T03:11:42.460Z,20.31
2018-05-23T03:12:22.916Z,20.17
2018-05-23T03:13:03.434Z,20.16
2018-05-23T03:13:43.966Z,20.05
2018-05-23T03:14:24.490Z,20.03
2018-05-23T03:15:05.019Z,19.94
2018-05-23T03:15:45.546Z,19.94
2018-05-23T03:16:26.067Z,19.96
2018-05-23T03:17:06.599Z,20.06
2018-05-23T03:17:47.125Z,20.14
2018-05-23T03:18:27.646Z,20.1
2018-05-23T03:19:08.171Z,20.06
2018-05-23T03:19:48.697Z,20.18
2018-05-23T03:20:29.242Z,20.21
2018-05-23T03:21:09.752Z,20.18
2018-05-23T03:21:50.282Z,20.13
2018-05-23T03:22:30.802Z,20.29
2018-05-23T03:23:11.335Z,20.17
2018-05-23T03:23:51.873Z,20.29
2018-05-23T03:24:32.395Z,20.23
2018-05-23T03:25:12.915Z,20.28
2018-05-23T03:25:53.424Z,20.16
2018-05-23T03:26:33.960Z,20.18
2018-05-23T03:27:14.473Z,20.14
2018-05-23T03:27:55.046Z,20.17
2018-05-23T03:28:35.523Z,20.24
2018-05-23T03:29:16.045Z,20.35
2018-05-23T03:29:56.571Z,20.26
2018-05-23T03:30:37.093Z,20.26
2018-05-23T03:31:17.624Z,20.31
2018-05-23T03:31:58.152Z,20.28
2018-05-23T03:32:38.694Z,20.36
2018-05-23T03:33:19.201Z,20.32
2018-05-23T03:33:59.726Z,20.21
2018-05-23T03:34:40.252Z,20.13
2018-05-23T03:35:20.799Z,20.03
2018-05-23T03:36:01.367Z,20.14
2018-05-23T03:36:41.885Z,20.13
2018-05-23T03:37:22.395Z,20.21
2018-05-23T03:38:02.908Z,20.32
2018-05-23T03:38:43.425Z,20.38
2018-05-23T03:39:23.941Z,20.31
2018-05-23T03:40:04.463Z,20.2
2018-05-23T03:40:44.987Z,20.21
2018-05-23T03:41:25.520Z,20.23
2018-05-23T03:42:06.029Z,20.17
2018-05-23T03:42:46.550Z,20.2
2018-05-23T03:43:27.070Z,20.2
2018-05-23T03:44:07.604Z,20.29
2018-05-23T03:44:48.125Z,20.17
2018-05-23T03:45:28.654Z,20.28
2018-05-23T03:46:09.174Z,20.23
2018-05-23T03:46:49.706Z,20.14
2018-05-23T03:47:30.244Z,20.21
2018-05-23T03:48:10.770Z,20.17
2018-05-23T03:48:51.288Z,20.26
2018-05-23T03:49:31.846Z,20.32
2018-05-23T03:50:12.365Z,20.16
2018-05-23T03:50:52.884Z,20.29
2018-05-23T03:51:33.406Z,20.26
2018-05-23T03:52:13.932Z,20.24
2018-05-23T03:52:54.463Z,20.23
2018-05-23T03:53:34.979Z,20.18
2018-05-23T03:54:15.502Z,20.13
2018-05-23T03:54:56.058Z,20.17
2018-05-23T03:55:36.555Z,20.16
2018-05-23T03:56:17.077Z,20.14
2018-05-23T03:56:57.599Z,20.26
2018-05-23T03:57:38.125Z,20.17
2018-05-23T03:58:18.643Z,20.18
2018-05-23T03:58:59.173Z,20.18
2018-05-23T03:59:39.698Z,20.1
2018-05-23T04:00:20.235Z,20.16
2018-05-23T04:01:00.746Z,20.17
2018-05-23T04:01:41.276Z,20.17
2018-05-23T04:02:21.796Z,20.18
2018-05-23T04:03:02.318Z,20.23
2018-05-23T04:03:42.843Z,20.26
2018-05-23T04:04:23.366Z,20.23
2018-05-23T04:05:03.892Z,20.26
2018-05-23T04:05:44.413Z,20.31
2018-05-23T04:06:24.931Z,20.29
2018-05-23T04:07:05.459Z,20.29
2018-05-23T04:07:45.987Z,20.33
2018-05-23T04:08:26.511Z,20.36
2018-05-23T04:09:07.029Z,20.31
2018-05-23T04:09:47.624Z,20.29
2018-05-23T04:10:28.081Z,20.31
2018-05-23T04:11:08.594Z,20.28
2018-05-23T04:11:49.119Z,20.38
2018-05-23T04:12:29.651Z,20.35
2018-05-23T04:13:10.171Z,20.29
2018-05-23T04:13:50.696Z,20.28
2018-05-23T04:14:31.229Z,20.36
2018-05-23T04:15:11.754Z,20.33
2018-05-23T04:15:52.266Z,20.28
2018-05-23T04:16:32.792Z,20.35
2018-05-23T04:17:13.313Z,20.32
2018-05-23T04:17:53.832Z,20.39
2018-05-23T04:18:34.347Z,20.33
2018-05-23T04:19:14.873Z,20.24
2018-05-23T04:19:55.405Z,20.24
2018-05-23T04:20:35.919Z,20.18
2018-05-23T04:21:16.442Z,20.24
2018-05-23T04:21:56.973Z,20.28
2018-05-23T04:22:37.504Z,20.23
2018-05-23T04:23:18.023Z,20.33
2018-05-23T04:23:58.543Z,20.32
2018-05-23T04:24:39.064Z,20.28
2018-05-23T04:25:19.579Z,20.28
2018-05-23T04:26:00.104Z,20.35
2018-05-23T04:26:40.626Z,20.32
2018-05-23T04:27:21.149Z,20.2
2018-05-23T04:28:01.676Z,20.21
2018-05-23T04:28:42.200Z,20.29
2018-05-23T04:29:22.717Z,20.17
2018-05-23T04:30:03.236Z,20.28
2018-05-23T04:30:43.753Z,20.28
2018-05-23T04:31:24.289Z,20.41
2018-05-23T04:32:04.822Z,20.36
2018-05-23T04:32:45.340Z,20.35
2018-05-23T04:33:25.867Z,20.38
2018-05-23T04:34:06.389Z,20.35
2018-05-23T04:34:46.898Z,20.33
2018-05-23T04:35:27.413Z,20.38
2018-05-23T04:36:07.937Z,20.29
2018-05-23T04:36:48.475Z,20.32
2018-05-23T04:37:28.992Z,20.33
2018-05-23T04:38:09.512Z,20.33
2018-05-23T04:38:50.035Z,20.36
2018-05-23T04:39:30.561Z,20.39
2018-05-23T04:40:11.095Z,20.39
2018-05-23T04:40:51.617Z,20.36
2018-05-23T04:41:32.144Z,20.39
2018-05-23T04:42:12.667Z,20.33
2018-05-23T04:42:53.202Z,20.38
2018-05-23T04:43:33.726Z,20.24
2018-05-23T04:44:14.265Z,20.26
2018-05-23T04:44:54.793Z,20.26
2018-05-23T04:45:35.322Z,20.21
2018-05-23T04:46:15.849Z,20.36
2018-05-23T04:46:56.388Z,20.13
2018-05-23T04:47:36.920Z,20.18
2018-05-23T04:48:17.431Z,20.26
2018-05-23T04:48:57.965Z,20.33
2018-05-23T04:49:38.496Z,20.35
2018-05-23T04:50:19.002Z,20.31
2018-05-23T04:50:59.520Z,20.2
2018-05-23T04:51:40.043Z,20.31
2018-05-23T04:52:20.569Z,20.26
2018-05-23T04:53:01.086Z,20.21
2018-05-23T04:53:41.599Z,20.18
2018-05-23T04:54:22.123Z,20.24
2018-05-23T04:55:02.640Z,20.2
2018-05-23T04:55:43.166Z,20.26
2018-05-23T04:56:23.680Z,20.21
2018-05-23T04:57:04.221Z,20.21
2018-05-23T04:57:44.739Z,20.24
2018-05-23T04:58:25.874Z,20.26
2018-05-23T04:59:05.783Z,20.18
2018-05-23T04:59:46.303Z,20.21
2018-05-23T05:00:26.827Z,20.14
2018-05-23T05:01:07.356Z,20.28
2018-05-23T05:01:47.889Z,20.29
2018-05-23T05:02:28.421Z,20.26
2018-05-23T05:03:08.968Z,20.16
2018-05-23T05:03:49.476Z,20.08
2018-05-23T05:04:29.992Z,20.06
2018-05-23T05:05:10.511Z,20.2
2018-05-23T05:05:51.043Z,20.21
2018-05-23T05:06:31.574Z,20.18
2018-05-23T05:07:12.096Z,20.28
2018-05-23T05:07:52.623Z,20.2
2018-05-23T05:08:33.147Z,20.23
2018-05-23T05:09:13.668Z,20.2
2018-05-23T05:09:54.226Z,20.23
2018-05-23T05:10:34.714Z,19.99
2018-05-23T05:11:15.235Z,20.1
2018-05-23T05:11:55.753Z,20.18
2018-05-23T05:12:36.298Z,20.16
2018-05-23T05:13:16.815Z,20.16
2018-05-23T05:13:57.333Z,20.23
2018-05-23T05:14:37.844Z,20.14
2018-05-23T05:15:18.368Z,20.18
2018-05-23T05:15:58.904Z,20.23
2018-05-23T05:16:39.460Z,20.2
2018-05-23T05:17:19.982Z,20.29
2018-05-23T05:18:00.505Z,20.16
2018-05-23T05:18:41.022Z,20.21
2018-05-23T05:19:21.547Z,20.24
2018-05-23T05:20:02.077Z,20.26
2018-05-23T05:20:42.591Z,20.24
2018-05-23T05:21:23.109Z,20.28
2018-05-23T05:22:03.620Z,20.29
2018-05-23T05:22:44.140Z,20.24
2018-05-23T05:23:24.650Z,20.21
2018-05-23T05:24:05.172Z,20.29
2018-05-23T05:24:45.706Z,20.2
2018-05-23T05:25:26.219Z,20.26
2018-05-23T05:26:06.746Z,20.32
2018-05-23T05:26:47.266Z,20.26
2018-05-23T05:27:27.784Z,20.36
2018-05-23T05:28:08.298Z,20.29
2018-05-23T05:28:48.819Z,20.33
2018-05-23T05:29:29.339Z,20.29
2018-05-23T05:30:09.867Z,20.29
2018-05-23T05:30:50.390Z,20.33
2018-05-23T05:31:30.911Z,20.41
2018-05-23T05:32:11.433Z,20.41
2018-05-23T05:32:51.942Z,20.33
2018-05-23T05:33:32.463Z,20.32
2018-05-23T05:34:12.990Z,20.33
2018-05-23T05:34:53.499Z,20.35
2018-05-23T05:35:34.046Z,20.33
2018-05-23T05:36:14.568Z,20.41
2018-05-23T05:36:55.089Z,20.39
2018-05-23T05:37:35.603Z,20.31
2018-05-23T05:38:16.128Z,20.31
2018-05-23T05:38:56.652Z,20.21
2018-05-23T05:39:37.167Z,20.28
2018-05-23T05:40:17.717Z,20.26
2018-05-23T05:40:58.242Z,20.16
2018-05-23T05:41:38.759Z,20.14
2018-05-23T05:42:19.285Z,20.18
2018-05-23T05:42:59.810Z,20.31
2018-05-23T05:43:40.339Z,20.24
2018-05-23T05:44:20.860Z,20.29
2018-05-23T05:45:01.382Z,20.26
2018-05-23T05:45:41.919Z,20.21
2018-05-23T05:46:22.447Z,20.14
2018-05-23T05:47:03.050Z,20.05
2018-05-23T05:47:43.496Z,20.14
2018-05-23T05:48:24.033Z,20.06
2018-05-23T05:49:04.553Z,20.24
2018-05-23T05:49:45.063Z,20.24
2018-05-23T05:50:25.571Z,20.16
2018-05-23T05:51:06.099Z,20.13
2018-05-23T05:51:46.612Z,20.28
2018-05-23T05:52:27.151Z,20.21
2018-05-23T05:53:07.668Z,20.31
2018-05-23T05:53:48.204Z,20.28
2018-05-23T05:54:28.707Z,20.2
2018-05-23T05:55:09.226Z,20.21
2018-05-23T05:55:49.735Z,20.26
2018-05-23T05:56:30.248Z,20.31
2018-05-23T05:57:10.767Z,20.2
2018-05-23T05:57:51.301Z,20.23
2018-05-23T05:58:31.812Z,20.39
2018-05-23T05:59:12.346Z,20.38
2018-05-23T05:59:52.884Z,20.5
2018-05-23T06:00:33.467Z,20.51
2018-05-23T06:01:13.984Z,20.5
2018-05-23T06:01:54.502Z,20.59
2018-05-23T06:02:35.020Z,20.55
2018-05-23T06:03:15.537Z,20.62
2018-05-23T06:03:56.078Z,20.69
2018-05-23T06:04:36.597Z,20.76
2018-05-23T06:05:17.140Z,20.88
2018-05-23T06:07:15.461Z,20.98
2018-05-23T06:07:56.000Z,21.01
2018-05-23T06:08:36.514Z,20.95
2018-05-23T06:09:17.041Z,20.95
2018-05-23T06:09:57.671Z,21.04
2018-05-23T06:10:38.107Z,21.04
2018-05-23T06:11:18.640Z,21.04
2018-05-23T06:11:59.155Z,21.01
2018-05-23T06:12:39.670Z,21.07
2018-05-23T06:13:20.179Z,21.16
2018-05-23T06:14:00.697Z,21.19
2018-05-23T06:14:41.206Z,21.16
2018-05-23T06:15:21.731Z,21.25
2018-05-23T06:16:02.245Z,21.31
2018-05-23T06:16:42.767Z,21.31
2018-05-23T06:17:23.292Z,21.31
2018-05-23T06:18:03.800Z,21.38
2018-05-23T06:18:44.324Z,21.52
2018-05-23T06:19:24.841Z,21.54
2018-05-23T06:20:05.356Z,21.54
2018-05-23T06:20:45.862Z,21.49
2018-05-23T06:21:26.382Z,21.59
2018-05-23T06:22:06.885Z,21.62
2018-05-23T06:22:47.412Z,21.62
2018-05-23T06:23:27.928Z,21.65
2018-05-23T06:24:08.460Z,21.67
2018-05-23T06:24:48.983Z,21.59
2018-05-23T06:25:29.487Z,21.59
2018-05-23T06:26:10.012Z,21.68
2018-05-23T06:26:50.534Z,21.74
2018-05-23T06:27:31.068Z,21.77
2018-05-23T06:28:11.602Z,21.68
2018-05-23T06:28:52.137Z,21.71
2018-05-23T06:29:32.659Z,21.71
2018-05-23T06:30:13.190Z,21.72
2018-05-23T06:30:53.707Z,21.65
2018-05-23T06:31:34.231Z,21.49
2018-05-23T06:32:14.763Z,21.35
2018-05-23T06:32:55.289Z,21.37
2018-05-23T06:33:35.808Z,21.42
2018-05-23T06:34:16.320Z,21.34
2018-05-23T06:34:56.849Z,21.38
2018-05-23T06:35:37.362Z,21.42
2018-05-23T06:36:17.881Z,21.4
2018-05-23T06:36:58.428Z,21.31
2018-05-23T06:37:39.025Z,21.4
2018-05-23T06:38:19.504Z,21.46
2018-05-23T06:39:00.014Z,21.32
2018-05-23T06:39:40.526Z,21.29
2018-05-23T06:40:21.059Z,21.34
2018-05-23T06:41:01.582Z,21.28
2018-05-23T06:41:42.097Z,21.34
2018-05-23T06:42:22.616Z,21.25
2018-05-23T06:43:03.149Z,21.22
2018-05-23T06:43:43.764Z,21.14
2018-05-23T06:44:24.186Z,21.25
2018-05-23T06:45:04.696Z,21.17
2018-05-23T06:45:45.222Z,21.16
2018-05-23T06:46:25.724Z,21.17
2018-05-23T06:47:06.261Z,21.19
2018-05-23T06:47:46.792Z,21.28
2018-05-23T06:48:27.331Z,21.21
2018-05-23T06:49:07.857Z,21.19
2018-05-23T06:49:48.380Z,21.14
2018-05-23T06:50:28.899Z,21.28
2018-05-23T06:51:09.438Z,21.28
2018-05-23T06:51:49.902Z,21.27
2018-05-23T06:52:30.554Z,21.31
2018-05-23T06:53:11.058Z,21.35
2018-05-23T06:53:51.513Z,21.4
2018-05-23T06:54:32.032Z,21.44
2018-05-23T06:55:12.557Z,21.47
2018-05-23T06:55:53.070Z,21.49
2018-05-23T06:56:33.587Z,21.53
2018-05-23T06:57:14.102Z,21.62
2018-05-23T06:57:54.620Z,21.61
2018-05-23T06:58:35.141Z,21.62
2018-05-23T06:59:15.659Z,21.54
2018-05-23T06:59:56.186Z,21.58
2018-05-23T07:00:36.717Z,21.67
2018-05-23T07:01:17.258Z,21.56
2018-05-23T07:01:57.758Z,21.61
2018-05-23T07:02:38.299Z,21.64
2018-05-23T07:03:18.820Z,21.65
2018-05-23T07:03:59.339Z,21.65
2018-05-23T07:04:39.873Z,21.65
2018-05-23T07:05:20.398Z,21.67
2018-05-23T07:06:00.920Z,21.64
2018-05-23T07:06:41.445Z,21.65
2018-05-23T07:07:21.987Z,21.65
2018-05-23T07:08:02.527Z,21.69
2018-05-23T07:08:43.046Z,21.67
2018-05-23T07:09:23.583Z,21.65
2018-05-23T07:10:04.122Z,21.72
2018-05-23T07:10:44.645Z,21.72
2018-05-23T07:11:25.163Z,21.77
2018-05-23T07:12:05.693Z,21.8
2018-05-23T07:12:46.228Z,21.82
2018-05-23T07:13:26.783Z,21.72
2018-05-23T07:14:07.321Z,21.86
2018-05-23T07:14:47.843Z,21.79
2018-05-23T07:15:28.366Z,21.72
2018-05-23T07:16:08.916Z,21.69
2018-05-23T07:16:49.410Z,21.68
2018-05-23T07:17:29.873Z,21.69
2018-05-23T07:18:10.467Z,21.61
2018-05-23T07:18:50.932Z,21.62
2018-05-23T07:19:31.454Z,21.61
2018-05-23T07:20:11.977Z,21.64
2018-05-23T07:20:52.484Z,21.58
2018-05-23T07:21:33.023Z,21.52
2018-05-23T07:22:13.538Z,21.38
2018-05-23T07:22:54.051Z,21.42
2018-05-23T07:23:34.565Z,21.43
2018-05-23T07:24:15.117Z,21.34
2018-05-23T07:24:55.635Z,21.37
2018-05-23T07:25:36.148Z,21.42
2018-05-23T07:26:16.663Z,21.32
2018-05-23T07:26:57.179Z,21.28
2018-05-23T07:27:37.695Z,21.29
2018-05-23T07:28:18.217Z,21.29
2018-05-23T07:28:58.748Z,21.31
2018-05-23T07:29:39.269Z,21.43
2018-05-23T07:30:19.789Z,21.37
2018-05-23T07:31:00.316Z,21.42
2018-05-23T07:31:40.858Z,21.37
2018-05-23T07:32:21.356Z,21.43
2018-05-23T07:33:01.879Z,21.43
2018-05-23T07:33:42.412Z,21.44
2018-05-23T07:34:22.953Z,21.24
2018-05-23T07:35:03.461Z,21.28
2018-05-23T07:35:43.968Z,21.22
2018-05-23T07:36:24.492Z,21.16
2018-05-23T07:37:05.030Z,21.27
2018-05-23T07:37:45.571Z,21.13
2018-05-23T07:38:26.201Z,21.17
2018-05-23T07:39:06.643Z,21.14
2018-05-23T07:39:47.168Z,21.21
2018-05-23T07:40:27.692Z,21.31
2018-05-23T07:41:08.227Z,21.22
2018-05-23T07:41:48.736Z,21.27
2018-05-23T07:42:29.244Z,21.29
2018-05-23T07:43:09.799Z,21.44
2018-05-23T07:43:50.324Z,21.42
2018-05-23T07:44:30.851Z,21.44
2018-05-23T07:45:11.371Z,21.46
2018-05-23T07:45:51.928Z,21.46
2018-05-23T07:46:32.399Z,21.52
2018-05-23T07:47:12.920Z,21.53
2018-05-23T07:47:53.457Z,21.5
2018-05-23T07:48:33.974Z,21.58
2018-05-23T07:49:14.517Z,21.59
2018-05-23T07:49:55.038Z,21.67
2018-05-23T07:50:35.573Z,21.61
2018-05-23T07:51:16.097Z,21.67
2018-05-23T07:51:56.643Z,21.67
2018-05-23T07:52:37.141Z,21.67
2018-05-23T07:53:17.666Z,21.67
2018-05-23T07:53:58.184Z,21.71
2018-05-23T07:54:38.703Z,21.72
2018-05-23T07:55:19.217Z,21.75
2018-05-23T07:55:59.754Z,21.77
2018-05-23T07:56:40.324Z,21.69
2018-05-23T07:57:20.802Z,21.65
2018-05-23T07:58:01.327Z,21.64
2018-05-23T07:58:41.852Z,21.64
2018-05-23T07:59:22.388Z,21.67
2018-05-23T08:00:02.899Z,21.65
2018-05-23T08:00:43.418Z,21.8
2018-05-23T08:01:23.948Z,21.75
2018-05-23T08:02:04.474Z,21.69
2018-05-23T08:02:44.990Z,21.79
2018-05-23T08:03:25.521Z,21.71
2018-05-23T08:04:06.052Z,21.71
2018-05-23T08:04:46.559Z,21.62
2018-05-23T08:05:27.097Z,21.65
2018-05-23T08:06:07.618Z,21.54
2018-05-23T08:06:48.134Z,21.58
2018-05-23T08:07:28.664Z,21.65
2018-05-23T08:08:09.260Z,21.44
2018-05-23T08:08:49.786Z,21.53
2018-05-23T08:09:30.297Z,21.56
2018-05-23T08:10:10.812Z,21.5
2018-05-23T08:10:51.340Z,21.56
2018-05-23T08:11:31.855Z,21.53
2018-05-23T08:12:12.408Z,21.46
2018-05-23T08:12:52.983Z,21.43
2018-05-23T08:13:33.525Z,21.47
2018-05-23T08:14:14.048Z,21.49
2018-05-23T08:14:54.574Z,21.59
2018-05-23T08:15:35.096Z,21.49
2018-05-23T08:16:15.621Z,21.64
2018-05-23T08:16:56.155Z,21.65
2018-05-23T08:17:36.668Z,21.61
2018-05-23T08:18:17.196Z,21.68
2018-05-23T08:18:57.723Z,21.71
2018-05-23T08:19:38.233Z,21.65
2018-05-23T08:20:18.747Z,21.65
2018-05-23T08:20:59.268Z,21.62
2018-05-23T08:21:39.813Z,21.61
2018-05-23T08:22:20.324Z,21.56
2018-05-23T08:23:00.835Z,21.53
2018-05-23T08:23:41.406Z,21.62
2018-05-23T08:24:21.864Z,21.62
2018-05-23T08:25:02.396Z,21.65
2018-05-23T08:25:42.927Z,21.61
2018-05-23T08:26:23.436Z,21.59
2018-05-23T08:27:03.966Z,21.72
2018-05-23T08:27:44.505Z,21.75
2018-05-23T08:28:25.019Z,21.77
2018-05-23T08:29:05.569Z,21.72
2018-05-23T08:29:46.156Z,21.75
2018-05-23T08:30:26.633Z,21.8
2018-05-23T08:31:07.150Z,21.75
2018-05-23T08:31:47.677Z,21.75
2018-05-23T08:32:28.206Z,21.72
2018-05-23T08:33:08.728Z,21.88
2018-05-23T08:33:49.253Z,21.9
2018-05-23T08:34:29.772Z,21.84
2018-05-23T08:35:10.307Z,21.84
2018-05-23T08:35:50.832Z,21.79
2018-05-23T08:36:31.449Z,21.82
2018-05-23T08:37:11.887Z,21.82
2018-05-23T08:37:52.408Z,21.83
2018-05-23T08:38:32.936Z,21.8
2018-05-23T08:39:13.461Z,21.96
2018-05-23T08:39:53.985Z,21.92
2018-05-23T08:40:34.506Z,22.02
2018-05-23T08:41:15.031Z,22
2018-05-23T08:41:55.554Z,21.92
2018-05-23T08:42:36.066Z,21.84
2018-05-23T08:43:16.584Z,21.72
2018-05-23T08:43:57.098Z,21.75
2018-05-23T08:44:37.627Z,21.86